Time;durP1;ratioP1;P1;durP2;ratioP2;P2;SDS_P1;SDS_P2;PMS_P1;PMS_P2;Temp;Humidity;BMP_temperature;BMP_pressure;BME280_temperature;BME280_humidity;BME280_pressure;Samples;Min_cycle;Max_cycle;Signal;HPM_P1;HPM_P2
2022/12/17 13:08:02;;;;;;;1.90;1.80;;;-2.70;98.20;;;;;;5058623;28;20474;-73
2022/12/17 13:10:31;;;;;;;1.97;1.87;;;-2.70;98.20;;;;;;5064306;28;20473;-73
2022/12/17 13:13:30;;;;;;;1.90;1.80;;;-2.60;98.20;;;;;;5046367;28;20492;-73
2022/12/17 13:16:02;;;;;;;3.40;3.20;;;-2.50;98.20;;;;;;5055315;28;20984;-73
2022/12/17 13:18:34;;;;;;;1.90;1.80;;;-2.30;98.20;;;;;;5066181;28;20578;-71
2022/12/17 13:21:03;;;;;;;1.90;1.80;;;-2.20;98.20;;;;;;5048191;28;20496;-72
2022/12/17 13:23:35;;;;;;;3.90;3.60;;;-2.10;98.20;;;;;;5054337;28;20461;-72
2022/12/17 13:26:18;;;;;;;2.23;2.03;;;-2.10;98.20;;;;;;5051324;28;20835;-72
2022/12/17 13:28:59;;;;;;;5.43;5.03;;;-2.10;98.20;;;;;;5057733;28;20763;-71
2022/12/17 13:31:28;;;;;;;2.10;1.90;;;-2.10;98.20;;;;;;5053296;28;20572;-72
2022/12/17 13:34:07;;;;;;;1.90;1.80;;;-2.10;98.20;;;;;;5057717;28;20457;-71
2022/12/17 13:36:44;;;;;;;2.47;2.27;;;-2.20;98.20;;;;;;5053357;28;20481;-73
2022/12/17 13:39:33;;;;;;;1.90;1.80;;;-2.20;98.20;;;;;;5067849;28;20472;-73
2022/12/17 13:42:00;;;;;;;1.80;1.70;;;-2.30;98.20;;;;;;5058205;28;20476;-72
2022/12/17 13:44:32;;;;;;;1.90;1.80;;;-2.30;98.20;;;;;;5068835;28;20458;-72
2022/12/17 13:46:59;;;;;;;2.00;1.90;;;-2.40;98.20;;;;;;5051119;28;20728;-72
2022/12/17 13:49:29;;;;;;;1.90;1.80;;;-2.50;98.20;;;;;;5065888;28;20515;-71
2022/12/17 13:52:03;;;;;;;1.90;1.80;;;-2.50;98.20;;;;;;5044182;28;20536;-71
2022/12/17 13:54:31;;;;;;;2.10;1.90;;;-2.50;98.20;;;;;;5056851;28;20488;-71
2022/12/17 13:57:08;;;;;;;2.00;1.90;;;-2.40;98.20;;;;;;5046579;28;20537;-71
2022/12/17 13:59:35;;;;;;;1.93;1.83;;;-2.50;98.20;;;;;;5062463;28;20465;-71
2022/12/17 14:02:01;;;;;;;2.30;2.10;;;-2.50;98.20;;;;;;5044204;28;20566;-71
2022/12/17 14:04:30;;;;;;;2.20;2.00;;;-2.50;98.20;;;;;;5058264;28;20466;-71
2022/12/17 14:07:00;;;;;;;2.87;2.67;;;-2.50;98.20;;;;;;5045231;28;20478;-71
2022/12/17 14:09:32;;;;;;;2.40;2.20;;;-2.50;98.20;;;;;;5060311;28;20502;-71
2022/12/17 14:14:59;;;;;;;2.20;2.00;;;-2.50;98.20;;;;;;5025449;28;20449;-73
2022/12/17 14:17:28;;;;;;;3.70;3.50;;;-2.50;98.20;;;;;;5044164;28;20612;-73
2022/12/17 14:20:01;;;;;;;2.07;1.97;;;-2.50;98.20;;;;;;5060298;28;20462;-74
2022/12/17 14:22:35;;;;;;;2.10;2.00;;;-2.50;98.20;;;;;;5047133;28;20589;-72
2022/12/17 14:25:04;;;;;;;2.00;1.90;;;-2.50;98.20;;;;;;5061333;28;20830;-73
2022/12/17 14:27:34;;;;;;;2.00;1.90;;;-2.50;98.20;;;;;;5051994;28;20473;-73
2022/12/17 14:30:03;;;;;;;2.10;2.00;;;-2.50;98.20;;;;;;5062246;28;20465;-73
2022/12/17 14:32:34;;;;;;;1.90;1.80;;;-2.50;98.20;;;;;;5043622;28;20917;-73
2022/12/17 14:35:03;;;;;;;1.90;1.80;;;-2.50;98.20;;;;;;5060312;28;20885;-72
2022/12/17 14:37:30;;;;;;;1.90;1.80;;;-2.50;98.20;;;;;;5043744;28;20481;-72
2022/12/17 14:40:03;;;;;;;3.03;2.83;;;-2.50;98.20;;;;;;5059703;28;20474;-72
2022/12/17 14:42:31;;;;;;;1.90;1.80;;;-2.40;98.20;;;;;;5052822;28;21252;-72
2022/12/17 14:44:59;;;;;;;1.90;1.80;;;-2.40;98.20;;;;;;5062133;28;20552;-73
2022/12/17 14:47:28;;;;;;;2.00;1.90;;;-2.50;98.20;;;;;;5041626;28;20649;-72
2022/12/17 14:50:03;;;;;;;3.23;3.03;;;-2.50;98.20;;;;;;5059013;28;21052;-72
2022/12/17 14:52:39;;;;;;;1.90;1.80;;;-2.50;98.20;;;;;;5042438;28;20476;-73
2022/12/17 14:55:29;;;;;;;2.00;1.90;;;-2.50;98.20;;;;;;5061439;28;20453;-71
2022/12/17 14:58:17;;;;;;;2.00;1.90;;;-2.50;98.20;;;;;;5040615;28;20494;-72
2022/12/17 15:00:47;;;;;;;1.90;1.80;;;-2.50;98.20;;;;;;5061811;28;20486;-73
2022/12/17 15:03:19;;;;;;;2.20;2.00;;;-2.50;98.20;;;;;;5036794;28;20577;-71
2022/12/17 15:05:51;;;;;;;1.90;1.80;;;-2.50;98.20;;;;;;5060445;28;20989;-72
2022/12/17 15:08:18;;;;;;;1.80;1.70;;;-2.50;98.20;;;;;;5057837;28;20541;-71
2022/12/17 15:10:45;;;;;;;16.63;8.77;;;-2.50;98.20;;;;;;5060028;28;20486;-71
2022/12/17 15:13:12;;;;;;;2.00;1.90;;;-2.50;98.20;;;;;;5039014;28;20469;-71
2022/12/17 15:15:39;;;;;;;2.30;2.10;;;-2.50;98.20;;;;;;5063650;28;20468;-71
2022/12/17 15:18:06;;;;;;;2.00;1.90;;;-2.50;98.20;;;;;;5037286;28;20481;-71
2022/12/17 15:20:32;;;;;;;1.80;1.70;;;-2.50;98.20;;;;;;5057898;28;20562;-72
2022/12/17 15:23:01;;;;;;;1.90;1.80;;;-2.50;98.20;;;;;;5038411;28;20535;-72
2022/12/17 15:25:28;;;;;;;1.93;1.83;;;-2.50;98.20;;;;;;5062665;28;20457;-72
2022/12/17 15:27:55;;;;;;;1.93;1.83;;;-2.60;98.20;;;;;;5054493;28;21139;-71
2022/12/17 15:30:22;;;;;;;2.43;2.23;;;-2.60;98.20;;;;;;5061063;28;20538;-73
2022/12/17 15:32:49;;;;;;;2.00;1.90;;;-2.60;98.20;;;;;;5037413;28;20520;-71
2022/12/17 15:35:16;;;;;;;1.90;1.80;;;-2.60;98.20;;;;;;5060981;28;20503;-74
2022/12/17 15:37:43;;;;;;;2.10;2.00;;;-2.60;98.20;;;;;;5049722;28;20480;-74
2022/12/17 15:40:12;;;;;;;1.97;1.87;;;-2.70;98.20;;;;;;5057748;28;20461;-73
2022/12/17 15:45:24;;;;;;;2.00;1.90;;;-2.70;98.20;;;;;;5048876;28;20832;-73
2022/12/17 15:47:51;;;;;;;2.00;1.90;;;-2.70;98.20;;;;;;5034088;28;20861;-73
2022/12/17 15:50:18;;;;;;;2.00;1.90;;;-2.80;98.20;;;;;;5061112;28;20519;-73
2022/12/17 15:52:45;;;;;;;2.33;2.13;;;-2.80;98.20;;;;;;5049540;28;20945;-72
2022/12/17 15:55:15;;;;;;;2.00;1.90;;;-2.80;98.20;;;;;;5065049;28;20468;-71
2022/12/17 15:57:42;;;;;;;2.00;1.90;;;-2.80;98.20;;;;;;5051073;28;20481;-72
2022/12/17 16:00:10;;;;;;;1.90;1.80;;;-2.80;98.20;;;;;;5058042;28;20526;-73
2022/12/17 16:02:37;;;;;;;2.00;1.90;;;-2.90;98.20;;;;;;5052654;28;20485;-71
2022/12/17 16:05:05;;;;;;;2.00;1.90;;;-2.90;98.20;;;;;;5060099;28;20469;-74
2022/12/17 16:07:32;;;;;;;6.43;5.93;;;-3.00;98.20;;;;;;5049336;28;20485;-74
2022/12/17 16:09:58;;;;;;;2.10;2.00;;;-3.00;98.20;;;;;;5060789;28;20472;-74
2022/12/17 16:12:27;;;;;;;2.00;1.90;;;-3.00;98.20;;;;;;5047272;28;20891;-72
2022/12/17 16:14:54;;;;;;;2.00;1.90;;;-3.00;98.20;;;;;;5059952;28;20465;-74
2022/12/17 16:17:21;;;;;;;2.00;1.90;;;-3.00;98.20;;;;;;5051693;28;20473;-74
2022/12/17 16:19:47;;;;;;;2.00;1.90;;;-3.00;98.20;;;;;;5062831;28;20843;-75
2022/12/17 16:22:14;;;;;;;1.97;1.87;;;-3.00;98.20;;;;;;5051370;28;20489;-71
2022/12/17 16:24:41;;;;;;;3.40;3.10;;;-3.00;98.20;;;;;;5060819;28;20462;-72
2022/12/17 16:27:08;;;;;;;2.20;2.00;;;-3.00;98.20;;;;;;5051351;28;20487;-74
2022/12/17 16:29:36;;;;;;;1.90;1.80;;;-3.00;98.20;;;;;;5063911;28;20457;-74
2022/12/17 16:32:03;;;;;;;2.00;1.90;;;-3.00;98.20;;;;;;5054298;28;20480;-72
2022/12/17 16:34:30;;;;;;;2.00;1.90;;;-3.10;98.20;;;;;;5062654;28;20552;-74
2022/12/17 16:36:57;;;;;;;2.33;2.17;;;-3.10;98.20;;;;;;5045909;28;20497;-74
2022/12/17 16:39:24;;;;;;;1.90;1.80;;;-3.10;98.20;;;;;;5065138;28;20496;-73
2022/12/17 16:41:50;;;;;;;2.00;1.90;;;-3.10;98.20;;;;;;5048123;28;20520;-73
2022/12/17 16:44:17;;;;;;;1.90;1.80;;;-3.10;98.20;;;;;;5060830;28;20469;-74
2022/12/17 16:46:46;;;;;;;1.90;1.80;;;-3.10;98.20;;;;;;5048270;28;20970;-74
2022/12/17 16:49:15;;;;;;;2.00;1.90;;;-3.10;98.20;;;;;;5061873;28;20465;-74
2022/12/17 16:51:42;;;;;;;2.00;1.90;;;-3.10;98.20;;;;;;5051810;28;20613;-74
2022/12/17 16:54:13;;;;;;;2.00;1.90;;;-3.10;98.20;;;;;;5059938;28;20480;-75
2022/12/17 16:56:40;;;;;;;2.00;1.90;;;-3.00;98.20;;;;;;5049841;28;20522;-74
2022/12/17 16:59:08;;;;;;;1.97;1.87;;;-3.00;98.20;;;;;;5061613;28;20481;-75
2022/12/17 17:01:36;;;;;;;6.53;6.13;;;-3.00;98.20;;;;;;5052659;28;20503;-74
2022/12/17 17:04:06;;;;;;;2.00;1.90;;;-3.00;98.20;;;;;;5057944;28;20465;-74
2022/12/17 17:06:33;;;;;;;2.00;1.90;;;-3.00;98.20;;;;;;5052774;28;20569;-75
2022/12/17 17:09:02;;;;;;;2.00;1.90;;;-3.00;98.20;;;;;;5061490;28;20950;-73
2022/12/17 17:11:29;;;;;;;3.90;3.70;;;-3.00;98.20;;;;;;5046475;28;20493;-73
2022/12/17 17:13:56;;;;;;;2.00;1.90;;;-3.00;98.20;;;;;;5056000;28;20473;-72
2022/12/17 17:16:25;;;;;;;1.90;1.80;;;-3.10;98.20;;;;;;5050439;28;20477;-73
2022/12/17 17:18:52;;;;;;;2.17;2.07;;;-3.10;98.20;;;;;;5061192;28;20532;-75
2022/12/17 17:21:28;;;;;;;2.00;1.90;;;-3.10;98.20;;;;;;5051664;28;20517;-73
2022/12/17 17:23:58;;;;;;;1.93;1.83;;;-3.10;98.20;;;;;;5060572;28;20472;-74
2022/12/17 17:26:25;;;;;;;2.27;2.07;;;-3.10;98.20;;;;;;5051901;28;20843;-74
2022/12/17 17:28:52;;;;;;;2.00;1.90;;;-3.10;98.20;;;;;;5059692;28;20461;-74
2022/12/17 17:31:20;;;;;;;2.40;2.20;;;-3.10;98.20;;;;;;5052759;28;20566;-76
2022/12/17 17:33:48;;;;;;;2.00;1.90;;;-3.10;98.20;;;;;;5062058;28;20468;-74
2022/12/17 17:36:17;;;;;;;2.00;1.90;;;-3.10;98.20;;;;;;5051480;28;21043;-74
2022/12/17 17:38:47;;;;;;;2.10;2.00;;;-3.10;98.20;;;;;;5063271;28;20588;-75
2022/12/17 17:41:15;;;;;;;2.00;1.80;;;-3.10;98.20;;;;;;5049857;28;21210;-75
2022/12/17 17:43:42;;;;;;;2.00;1.90;;;-3.10;98.20;;;;;;5051935;28;20472;-75
2022/12/17 17:46:12;;;;;;;2.53;2.33;;;-3.10;98.20;;;;;;5051406;28;20488;-74
2022/12/17 17:48:40;;;;;;;1.90;1.80;;;-3.10;98.20;;;;;;5061056;28;20457;-73
2022/12/17 17:51:09;;;;;;;2.00;1.90;;;-3.10;98.20;;;;;;5051660;28;20574;-76
2022/12/17 17:53:37;;;;;;;2.00;1.90;;;-3.10;98.20;;;;;;5061489;28;20843;-75
2022/12/17 17:56:13;;;;;;;2.00;1.90;;;-3.10;98.20;;;;;;5051602;28;20476;-74
2022/12/17 17:58:40;;;;;;;2.30;2.10;;;-3.10;98.20;;;;;;5058068;28;20976;-72
2022/12/17 18:01:09;;;;;;;2.37;2.17;;;-3.10;98.20;;;;;;5051135;28;20821;-75
2022/12/17 18:03:36;;;;;;;3.50;3.30;;;-3.10;98.20;;;;;;5053448;28;20492;-75
2022/12/17 18:06:03;;;;;;;2.63;2.43;;;-3.10;98.20;;;;;;5051504;28;20461;-74
2022/12/17 18:08:31;;;;;;;2.00;1.90;;;-3.10;98.20;;;;;;5059916;28;20462;-73
2022/12/17 18:10:58;;;;;;;2.00;1.90;;;-3.10;98.20;;;;;;5048764;28;20679;-74
2022/12/17 18:16:11;;;;;;;2.00;1.90;;;-3.10;98.20;;;;;;5049548;28;20901;-74
2022/12/17 18:18:39;;;;;;;2.67;2.47;;;-3.20;98.20;;;;;;5060027;28;20481;-76
2022/12/17 18:21:07;;;;;;;2.60;2.40;;;-3.20;98.20;;;;;;5049988;28;20504;-73
2022/12/17 18:23:35;;;;;;;2.00;1.90;;;-3.20;98.20;;;;;;5059897;28;20454;-75
2022/12/17 18:26:07;;;;;;;2.03;1.93;;;-3.20;98.20;;;;;;5048612;28;20465;-75
2022/12/17 18:28:35;;;;;;;2.00;1.90;;;-3.20;98.20;;;;;;5053549;28;20918;-76
2022/12/17 18:31:07;;;;;;;2.10;1.90;;;-3.20;98.20;;;;;;5054984;28;20503;-73
2022/12/17 18:33:34;;;;;;;2.00;1.90;;;-3.20;98.20;;;;;;5056828;28;20501;-74
2022/12/17 18:36:01;;;;;;;2.00;1.90;;;-3.30;98.20;;;;;;5049989;28;20465;-75
2022/12/17 18:38:28;;;;;;;2.00;1.90;;;-3.30;98.20;;;;;;5060125;28;20973;-75
2022/12/17 18:40:54;;;;;;;2.00;1.90;;;-3.30;98.20;;;;;;5051274;28;20987;-75
2022/12/17 18:43:23;;;;;;;1.93;1.83;;;-3.30;98.20;;;;;;5055786;28;20473;-74
2022/12/17 18:45:52;;;;;;;2.87;2.67;;;-3.30;98.20;;;;;;5048582;28;20469;-74
2022/12/17 18:48:19;;;;;;;2.00;1.90;;;-3.30;98.20;;;;;;5060678;28;21035;-74
2022/12/17 18:50:46;;;;;;;3.20;3.00;;;-3.30;98.20;;;;;;5059915;28;21050;-74
2022/12/17 18:53:12;;;;;;;2.00;1.90;;;-3.30;98.20;;;;;;5034106;28;20473;-74
2022/12/17 18:55:40;;;;;;;2.20;2.00;;;-3.40;98.20;;;;;;5060948;28;20462;-74
2022/12/17 18:58:07;;;;;;;2.40;2.20;;;-3.30;98.20;;;;;;5049826;28;20501;-74
2022/12/17 19:00:35;;;;;;;2.20;2.00;;;-3.30;98.20;;;;;;5058616;28;20478;-76
2022/12/17 19:03:04;;;;;;;2.63;2.43;;;-3.30;98.20;;;;;;5050561;28;20492;-75
2022/12/17 19:05:31;;;;;;;2.30;2.10;;;-3.30;98.20;;;;;;5060304;28;20461;-74
2022/12/17 19:07:58;;;;;;;2.00;1.90;;;-3.30;98.20;;;;;;5048471;28;20856;-75
2022/12/17 19:10:24;;;;;;;2.00;1.90;;;-3.30;98.20;;;;;;5058567;28;20674;-74
2022/12/17 19:12:51;;;;;;;2.07;1.97;;;-3.30;98.20;;;;;;5041891;28;20913;-75
2022/12/17 19:15:18;;;;;;;2.00;1.90;;;-3.40;98.20;;;;;;5062040;28;20465;-74
2022/12/17 19:17:49;;;;;;;2.40;2.20;;;-3.40;98.20;;;;;;5052731;28;20492;-76
2022/12/17 19:20:18;;;;;;;2.00;1.90;;;-3.40;98.20;;;;;;5062792;28;20485;-75
2022/12/17 19:22:45;;;;;;;2.00;1.90;;;-3.40;98.20;;;;;;5054327;28;20488;-74
2022/12/17 19:25:11;;;;;;;1.93;1.83;;;-3.40;98.20;;;;;;5065209;28;20472;-74
2022/12/17 19:27:38;;;;;;;1.90;1.80;;;-3.40;98.20;;;;;;5053930;28;20496;-74
2022/12/17 19:30:06;;;;;;;2.00;1.90;;;-3.40;98.20;;;;;;5064606;28;20466;-74
2022/12/17 19:32:33;;;;;;;2.30;2.10;;;-3.40;98.20;;;;;;5055058;28;20485;-77
2022/12/17 19:35:00;;;;;;;2.00;1.90;;;-3.40;98.20;;;;;;5063856;28;20860;-74
2022/12/17 19:37:28;;;;;;;2.00;1.90;;;-3.40;98.20;;;;;;5051944;28;20513;-74
2022/12/17 19:39:55;;;;;;;2.00;1.90;;;-3.30;98.20;;;;;;5062364;28;20492;-74
2022/12/17 19:42:24;;;;;;;2.00;1.90;;;-3.30;98.20;;;;;;5049600;28;20498;-75
2022/12/17 19:44:51;;;;;;;2.20;2.00;;;-3.30;98.20;;;;;;5061879;28;20779;-75
2022/12/17 19:47:18;;;;;;;2.20;2.10;;;-3.30;98.20;;;;;;5054516;28;20481;-75
2022/12/17 19:49:45;;;;;;;2.30;2.10;;;-3.30;98.20;;;;;;5063598;28;20572;-74
2022/12/17 19:52:11;;;;;;;2.00;1.90;;;-3.40;98.20;;;;;;5054587;28;20481;-75
2022/12/17 19:54:39;;;;;;;2.00;1.90;;;-3.40;98.20;;;;;;5060196;28;20469;-75
2022/12/17 19:57:06;;;;;;;2.00;1.90;;;-3.40;98.20;;;;;;5054225;28;20477;-73
2022/12/17 19:59:33;;;;;;;1.90;1.80;;;-3.40;98.20;;;;;;5063865;28;20866;-75
2022/12/17 20:02:02;;;;;;;2.00;1.90;;;-3.40;98.20;;;;;;5053503;28;20493;-74
2022/12/17 20:04:29;;;;;;;3.33;3.03;;;-3.40;98.20;;;;;;5063063;28;20516;-73
2022/12/17 20:06:56;;;;;;;3.00;2.80;;;-3.40;98.20;;;;;;5051747;28;20484;-72
2022/12/17 20:09:23;;;;;;;2.00;1.90;;;-3.40;98.20;;;;;;5061098;28;20462;-72
2022/12/17 20:11:51;;;;;;;2.00;1.90;;;-3.40;98.20;;;;;;5048308;28;21101;-74
2022/12/17 20:14:20;;;;;;;2.00;1.90;;;-3.40;98.20;;;;;;5059670;28;21196;-73
2022/12/17 20:16:49;;;;;;;2.20;2.00;;;-3.40;98.20;;;;;;5053312;28;20513;-74
2022/12/17 20:19:18;;;;;;;2.00;1.90;;;-3.30;98.20;;;;;;5063623;28;20489;-74
2022/12/17 20:21:45;;;;;;;2.00;1.90;;;-3.30;98.20;;;;;;5051798;28;20492;-75
2022/12/17 20:24:12;;;;;;;2.10;2.00;;;-3.30;98.20;;;;;;5062473;28;20470;-75
2022/12/17 20:26:40;;;;;;;2.10;2.00;;;-3.20;98.20;;;;;;5052591;28;20485;-76
2022/12/17 20:29:09;;;;;;;2.00;1.90;;;-3.20;98.20;;;;;;5059269;28;20978;-75
2022/12/17 20:31:36;;;;;;;2.00;1.90;;;-3.20;98.20;;;;;;5054905;28;20496;-73
2022/12/17 20:34:04;;;;;;;2.07;1.97;;;-3.20;98.20;;;;;;5062580;28;20473;-74
2022/12/17 20:36:31;;;;;;;2.70;2.50;;;-3.20;98.20;;;;;;5056145;28;20492;-76
2022/12/17 20:38:59;;;;;;;2.00;1.90;;;-3.20;98.20;;;;;;5061560;28;20469;-75
2022/12/17 20:41:27;;;;;;;2.00;1.90;;;-3.10;98.20;;;;;;5044564;28;20501;-75
2022/12/17 20:43:55;;;;;;;2.00;1.90;;;-3.10;98.20;;;;;;5055909;28;20472;-75
2022/12/17 20:46:25;;;;;;;1.90;1.80;;;-3.10;98.20;;;;;;5047358;28;20493;-74
2022/12/17 20:48:52;;;;;;;2.00;1.90;;;-3.10;98.20;;;;;;5060951;28;20466;-75
2022/12/17 20:51:21;;;;;;;2.00;1.90;;;-3.10;98.20;;;;;;5047548;28;20872;-75
2022/12/17 20:53:48;;;;;;;12.63;11.53;;;-3.00;98.20;;;;;;5058323;28;20465;-78
2022/12/17 20:56:17;;;;;;;2.03;1.93;;;-3.00;98.20;;;;;;5052614;28;20508;-75
2022/12/17 20:58:44;;;;;;;2.00;1.90;;;-3.00;98.20;;;;;;5060148;28;20462;-75
2022/12/17 21:01:13;;;;;;;1.90;1.80;;;-3.00;98.20;;;;;;5048880;28;20481;-75
2022/12/17 21:03:42;;;;;;;2.10;2.00;;;-3.00;98.20;;;;;;5055621;28;20457;-75
2022/12/17 21:06:10;;;;;;;2.30;2.10;;;-3.00;98.20;;;;;;5044840;28;20877;-74
2022/12/17 21:08:38;;;;;;;2.00;1.90;;;-3.00;98.20;;;;;;5059666;28;20582;-76
2022/12/17 21:11:05;;;;;;;2.87;2.67;;;-3.00;98.20;;;;;;5049532;28;20858;-76
2022/12/17 21:13:33;;;;;;;1.90;1.80;;;-3.00;98.20;;;;;;5060188;28;20472;-74
2022/12/17 21:16:03;;;;;;;2.37;2.17;;;-3.00;98.20;;;;;;5047598;28;20465;-76
2022/12/17 21:18:31;;;;;;;2.00;1.90;;;-3.00;98.20;;;;;;5059254;28;20474;-75
2022/12/17 21:21:01;;;;;;;1.90;1.80;;;-3.00;98.20;;;;;;5045020;28;20524;-75
2022/12/17 21:23:29;;;;;;;1.90;1.80;;;-3.00;98.20;;;;;;5067936;28;20461;-75
2022/12/17 21:26:04;;;;;;;2.47;2.27;;;-3.10;98.20;;;;;;5051542;28;20630;-74
2022/12/17 21:28:33;;;;;;;2.03;1.93;;;-3.00;98.20;;;;;;5062614;28;20471;-74
2022/12/17 21:30:59;;;;;;;1.90;1.80;;;-3.10;98.20;;;;;;5051470;28;20481;-75
2022/12/17 21:33:26;;;;;;;2.10;2.00;;;-3.10;98.20;;;;;;5063873;28;20468;-73
2022/12/17 21:35:59;;;;;;;2.63;2.43;;;-3.10;98.20;;;;;;5049451;28;20518;-74
2022/12/17 21:38:26;;;;;;;2.10;2.00;;;-3.10;98.20;;;;;;5060456;28;20461;-75
2022/12/17 21:40:53;;;;;;;1.97;1.87;;;-3.10;98.20;;;;;;5047098;28;20493;-75
2022/12/17 21:43:19;;;;;;;2.00;1.90;;;-3.10;98.20;;;;;;5049960;28;20469;-75
2022/12/17 21:45:46;;;;;;;1.90;1.80;;;-3.10;98.20;;;;;;5060933;28;20944;-76
2022/12/17 21:48:13;;;;;;;2.00;1.90;;;-3.10;98.20;;;;;;5034112;28;20477;-77
2022/12/17 21:50:41;;;;;;;2.00;1.90;;;-3.20;98.20;;;;;;5060972;28;20480;-75
2022/12/17 21:53:10;;;;;;;2.00;1.90;;;-3.20;98.20;;;;;;5052837;28;20551;-75
2022/12/17 21:55:38;;;;;;;1.90;1.80;;;-3.10;98.20;;;;;;5060654;28;20461;-75
2022/12/17 21:58:05;;;;;;;2.93;2.73;;;-3.20;98.20;;;;;;5051560;28;20492;-74
2022/12/17 22:00:32;;;;;;;2.00;1.90;;;-3.10;98.20;;;;;;5060441;28;20550;-75
2022/12/17 22:02:59;;;;;;;2.00;1.90;;;-3.10;98.20;;;;;;5050949;28;20481;-75
2022/12/17 22:05:26;;;;;;;2.30;2.10;;;-3.10;98.20;;;;;;5058879;28;21148;-75
2022/12/17 22:07:53;;;;;;;2.10;2.00;;;-3.20;98.20;;;;;;5049276;28;20925;-75
2022/12/17 22:10:21;;;;;;;2.00;1.90;;;-3.10;98.20;;;;;;5060745;28;20549;-74
2022/12/17 22:15:32;;;;;;;1.90;1.80;;;-3.10;98.20;;;;;;5064058;28;20523;-75
2022/12/17 22:17:59;;;;;;;2.00;1.90;;;-3.10;98.20;;;;;;5050812;28;20481;-74
2022/12/17 22:20:26;;;;;;;2.00;1.90;;;-3.10;98.20;;;;;;5060352;28;21121;-75
2022/12/17 22:22:52;;;;;;;2.00;1.90;;;-3.10;98.20;;;;;;5051352;28;21081;-75
2022/12/17 22:25:20;;;;;;;2.00;1.90;;;-3.10;98.20;;;;;;5062137;28;20457;-76
2022/12/17 22:27:47;;;;;;;1.90;1.80;;;-3.10;98.20;;;;;;5050566;28;20485;-74
2022/12/17 22:33:01;;;;;;;2.00;1.90;;;-3.10;98.20;;;;;;5051499;28;20559;-75
2022/12/17 22:35:32;;;;;;;2.00;1.90;;;-3.10;98.20;;;;;;5061973;28;20488;-76
2022/12/17 22:37:59;;;;;;;2.00;1.90;;;-3.20;98.20;;;;;;5047524;28;20517;-76
2022/12/17 22:40:27;;;;;;;3.07;2.87;;;-3.20;98.20;;;;;;5060942;28;20500;-76
2022/12/17 22:45:39;;;;;;;2.00;1.90;;;-3.10;98.20;;;;;;5060628;28;20449;-75
2022/12/17 22:48:06;;;;;;;2.40;2.20;;;-3.10;98.20;;;;;;5051858;28;20477;-75
2022/12/17 22:50:33;;;;;;;3.13;2.93;;;-3.10;98.20;;;;;;5061113;28;21074;-75
2022/12/17 22:53:00;;;;;;;1.90;1.80;;;-3.10;98.20;;;;;;5052114;28;20539;-74
2022/12/17 22:55:29;;;;;;;2.10;2.00;;;-3.10;98.20;;;;;;5062560;28;20461;-75
2022/12/17 22:57:56;;;;;;;3.87;3.67;;;-3.10;98.20;;;;;;5059685;28;20483;-76
2022/12/17 23:00:27;;;;;;;2.00;1.90;;;-3.20;98.20;;;;;;5069038;28;20493;-75
2022/12/17 23:02:54;;;;;;;1.90;1.80;;;-3.20;98.20;;;;;;5061628;28;20489;-72
2022/12/17 23:05:22;;;;;;;2.00;1.90;;;-3.20;98.20;;;;;;5069827;28;20457;-75
2022/12/17 23:07:49;;;;;;;2.67;2.47;;;-3.20;98.20;;;;;;5058542;28;21000;-75
2022/12/17 23:10:17;;;;;;;1.93;1.83;;;-3.20;98.20;;;;;;5055167;28;20458;-75
2022/12/17 23:12:51;;;;;;;2.00;1.90;;;-3.20;98.20;;;;;;5049647;28;20489;-75
2022/12/17 23:15:20;;;;;;;2.10;2.00;;;-3.20;98.20;;;;;;5066906;28;20460;-77
2022/12/17 23:17:47;;;;;;;2.00;1.90;;;-3.20;98.20;;;;;;5061504;28;20487;-75
2022/12/17 23:20:15;;;;;;;2.00;1.90;;;-3.20;98.20;;;;;;5068271;28;20485;-73
2022/12/17 23:22:42;;;;;;;1.90;1.80;;;-3.20;98.20;;;;;;5053175;28;20481;-75
2022/12/17 23:25:10;;;;;;;2.17;2.03;;;-3.20;98.20;;;;;;5068729;28;20899;-75
2022/12/17 23:27:37;;;;;;;2.00;1.90;;;-3.20;98.20;;;;;;5059951;28;21779;-75
2022/12/17 23:30:06;;;;;;;2.20;2.00;;;-3.20;98.20;;;;;;5068579;28;20456;-77
2022/12/17 23:32:34;;;;;;;2.00;1.90;;;-3.20;98.20;;;;;;5060617;28;20480;-76
2022/12/17 23:35:00;;;;;;;2.00;1.90;;;-3.20;98.20;;;;;;5066165;28;20457;-75
2022/12/17 23:37:27;;;;;;;2.00;1.90;;;-3.20;98.20;;;;;;5060297;28;20479;-73
2022/12/17 23:39:54;;;;;;;2.00;1.90;;;-3.30;98.20;;;;;;5063348;28;20461;-77
2022/12/17 23:42:21;;;;;;;2.00;1.90;;;-3.30;98.20;;;;;;5056810;28;21004;-77
2022/12/17 23:44:48;;;;;;;2.40;2.20;;;-3.30;98.20;;;;;;5065377;28;20479;-76
2022/12/17 23:47:16;;;;;;;2.07;1.97;;;-3.30;98.20;;;;;;5049909;28;20492;-76
2022/12/17 23:49:43;;;;;;;2.63;2.43;;;-3.30;98.20;;;;;;5063633;28;20461;-76
2022/12/17 23:52:10;;;;;;;2.00;1.90;;;-3.30;98.20;;;;;;5057579;28;21055;-74
2022/12/17 23:54:37;;;;;;;2.00;1.90;;;-3.30;98.20;;;;;;5067873;28;20478;-75
2022/12/17 23:57:04;;;;;;;2.00;1.90;;;-3.30;98.20;;;;;;5051370;28;20511;-74
2022/12/17 23:59:31;;;;;;;2.00;1.90;;;-3.40;98.20;;;;;;5065365;28;20457;-73
